x

Cape Elizabeth- 45nm Nw Of Aberdeen, Wa (46041) Wave Buoy

7:50 - Sat 19th Aug 2017 All times are PDT. -7 hours from GMT.

  • Sig Wave height 5.2ft
  • Swell Direction
  • Peak Period 10s
  • Average Period 6s
  • Wind
    16mph, 18mph gusts
  • Sea Temp 59°f
  • Ar Temp 60°f
  • Sea Pressure 1022.8mb
  • Cape Elizabeth- 45nm Nw Of Aberdeen, Wa
  • Cape Elizabeth- 45nm Nw Of Aberdeen, Wa

More Historic Weather Station data

Upgrade to MSW Pro to gain access to the past 30 days of data for over 8000 Wavebouys and Weather Stations around the globe.

Join

Comparision Forecast

View Surf forecast
   
Sáb 08/19 7:50 5ft 10s 6s 16 18 mph 1022.8mb 59f 60f
6:50 5ft 8s 6s 16 20 mph 1022.8mb 60f 60f
5:50 5ft 9s 6s 16 18 mph 1023.1mb 60f 60f
4:50 5ft 7s 6s 13 16 mph 1023.4mb 60f 60f
3:50 5ft 8s 6s 13 16 mph 1023.8mb 60f 60f
2:50 5ft 8s 6s 13 16 mph 1023.9mb 60f 60f
1:50 5.5ft 9s 6s 11 13 mph 1024.2mb 60f 59f
12:50 5.5ft 10s 6s 13 16 mph 1024.2mb 60f 59f
11:50 5.5ft 8s 6s 11 13 mph 1024.3mb 60f 59f
10:50 6ft 8s 6s 11 13 mph 1024.1mb 60f 59f
9:50 6ft 9s 6s 9 11 mph 1023.9mb 60f 59f
8:50 6ft 9s 6s 11 13 mph 1023.9mb 60f 59f
7:50 6.5ft 9s 7s 11 13 mph 1023.6mb 59f 59f
6:50 5.5ft 9s 6s 13 18 mph 1023.4mb 59f 59f
5:50 6ft 9s 6s 16 20 mph 1023mb 59f 59f
4:50 6ft 9s 6s 16 18 mph 1022.9mb 59f 59f
3:50 6ft 8s 6s 18 20 mph 1022.8mb 60f 59f
2:50 5.5ft 9s 6s 16 18 mph 1022.9mb 60f 59f
1:50 5.5ft 9s 6s 16 18 mph 1022.9mb 60f 59f
12:50 6ft 9s 6s 18 20 mph 1022.7mb 60f 59f
Sex 08/18 11:50 5ft 10s 6s 16 18 mph 1022.6mb 60f 59f
10:50 5ft 9s 6s 16 18 mph 1022.6mb 59f 59f
9:50 6ft 10s 7s 13 16 mph 1022.6mb 59f 60f
8:50 6ft 10s 7s 11 13 mph 1022.3mb 59f 60f
7:50 6ft 9s 7s 11 13 mph 1022.2mb 60f 60f
6:50 6ft 9s 7s 9 11 mph 1022.2mb 60f 60f
5:50 5ft 9s 7s 7 9 mph 1022.4mb 60f 60f
4:50 5ft 10s 8s 13 13 mph 1022.6mb 61f 60f
3:50 5ft 10s 8s 4 7 mph 1022.9mb 62f 61f
2:50 5ft 11s 8s 2 4 mph 1023.1mb 62f 61f
1:50 4.5ft 11s 8s 2 4 mph 1023mb 63f 62f
12:50 4.5ft 11s 8s  -  2 mph 1022.9mb 62f 63f
11:50 4.5ft 11s 8s 7 9 mph 1022.6mb 61f 61f
10:50 5ft 11s 8s 4 7 mph 1022.4mb 60f 60f
9:50 5ft 9s 7s 4 4 mph 1022.3mb 60f 60f
8:50 6ft 11s 7s 2 2 mph 1022.3mb 60f 59f
7:50 6ft 10s 7s  -  2 mph 1022.3mb 60f 59f
6:50 6.5ft 11s 8s 2 2 mph 1022.1mb 60f 58f
5:50 6ft 11s 8s 4 7 mph 1022mb 60f 58f
4:50 6ft 12s 8s 4 7 mph 1021.9mb 60f 59f
3:50 6.5ft 9s 8s 9 9 mph 1021.8mb 60f 59f
2:50 6ft 10s 7s 9 11 mph 1021.9mb 60f 59f
1:50 6ft 11s 8s 13 16 mph 1022.1mb 60f 59f
12:50 7ft 11s 8s 9 11 mph 1022.3mb 60f 59f
Qui 08/17 11:50 7ft 11s 8s 9 11 mph 1022.3mb 59f 59f
10:50 6.5ft 11s 7s 9 11 mph 1022.5mb 60f 59f
9:50 6.5ft 10s 8s 11 13 mph 1022.5mb 60f 60f
8:50 7ft 11s 8s 11 16 mph 1022.3mb 60f 60f
7:50 7ft 11s 8s 11 13 mph 1022.3mb 61f 60f
6:50 6.5ft 11s 8s 7 9 mph 1022.6mb 61f 60f
5:50 7ft 11s 9s 7 9 mph 1022.8mb 62f 60f
4:50 6.5ft 11s 8s 7 9 mph 1023.3mb 61f 60f
3:50 7ft 12s 9s 7 9 mph 1023.7mb 61f 60f
2:50 7ft 12s 9s 4 7 mph 1023.7mb 61f 59f
1:50 6.5ft 11s 9s 4 7 mph 1023.7mb 60f 59f
12:50 7ft 11s 8s 4 7 mph 1023.5mb 60f 58f
11:50 7ft 11s 8s 4 7 mph 1023.6mb 59f 58f
10:50 7.5ft 11s 8s 4 7 mph 1023.2mb 59f 58f
9:50 7ft 10s 7s 9 9 mph 1022.8mb 59f 58f
8:50 7ft 11s 7s 7 9 mph 1022.6mb 58f 58f
7:50 7ft 11s 7s 9 9 mph 1022.4mb 58f 59f
6:50 6.5ft 10s 7s 9 11 mph 1021.8mb 58f 58f
5:50 6ft 10s 7s 9 11 mph 1021.5mb 59f 58f
4:50 5ft 8s 6s 11 13 mph 1021.5mb 58f 58f
3:50 5.5ft 8s 7s 9 11 mph 1021.5mb 58f 58f
2:50 5.5ft 8s 7s 9 11 mph 1021.2mb 58f 58f
1:50 5.5ft 10s 7s 9 11 mph 1021.3mb 58f 58f
12:50 5.5ft 10s 7s 9 11 mph 1021.1mb 58f 58f
Qua 08/16 11:50 5ft 10s 6s 9 11 mph 1021.1mb 58f 58f
10:50 5ft 8s 7s 9 11 mph 1020.9mb 58f 58f
9:50 5ft 10s 7s 11 13 mph 1020.6mb 58f 59f
8:50 5ft 10s 7s 9 11 mph 1020.2mb 58f 60f
7:50 5ft 10s 7s 7 9 mph 1020.2mb 59f 60f
6:50 5ft 10s 7s 4 7 mph 1020.4mb 58f 59f
5:50 5ft 10s 7s 7 9 mph 1020.3mb 58f 59f
4:50 5ft 10s 7s 13 16 mph 1020.5mb 59f 60f
3:50 7ft 10s 8s 7 7 mph 1020.8mb 59f 60f
2:50 5.5ft 10s 8s 7 7 mph 1021.1mb 60f 60f
1:50 6ft 10s 8s 4 4 mph 1021.2mb 60f 60f
12:50 6ft 10s 8s 2 4 mph 1020.8mb 60f 60f
11:50 5.5ft 10s 7s 2 4 mph 1020.7mb 58f 59f
10:50 5.5ft 10s 7s 2 4 mph 1020.5mb 57f 59f
9:50 5ft 10s 8s 2 2 mph 1020.2mb 56f 58f
8:50 6ft 10s 8s 4 7 mph 1020.3mb 56f 57f
7:50 5.5ft 10s 8s 4 7 mph 1019.8mb 56f 58f
6:50 6ft 10s 8s 7 9 mph 1019.5mb 56f 58f
5:50 5.5ft 10s 8s 9 11 mph 1019.1mb 56f 57f
4:50 5ft 9s 8s 11 11 mph 1019mb 56f 58f